Schedule Details


Flight Number: CTN674
Departure: Franjo Tudman (LDZA) at 14:15
Arrival: Zemunik (LDZD) at 15:00
Route: KOTOR M986 KULEN L868 ALANU

Weather Information
LDZA 190930Z VRB02KT CAVOK 08/01 Q1022 NOSIG
LDZD 190930Z 15007KT 110V170 9999 FEW045 BKN070 12/M00 Q1020 NOSIG
Schedule Frequency

Route Map